createdAt,value
2022-12-15T00:01:49.660Z,-5.38
2022-12-15T00:04:34.434Z,-5.33
2022-12-15T00:07:19.300Z,-5.17
2022-12-15T00:10:04.393Z,-5.03
2022-12-15T00:12:49.133Z,-5.58
2022-12-15T00:15:33.951Z,-5.28
2022-12-15T00:18:23.867Z,-5.22
2022-12-15T00:21:08.751Z,-5.13
2022-12-15T00:23:53.684Z,-5.45
2022-12-15T00:26:38.738Z,-5.37
2022-12-15T00:29:23.779Z,-5.30
2022-12-15T00:32:08.408Z,-5.26
2022-12-15T00:34:53.165Z,-5.11
2022-12-15T00:37:37.652Z,-5.18
2022-12-15T00:40:05.220Z,-5.25
2022-12-15T00:42:31.604Z,-5.34
2022-12-15T00:44:58.519Z,-5.35
2022-12-15T00:47:25.228Z,-5.33
2022-12-15T00:50:10.081Z,-5.53
2022-12-15T00:52:55.182Z,-5.71
2022-12-15T00:55:39.892Z,-5.53
2022-12-15T00:58:24.572Z,-5.67
2022-12-15T01:01:09.524Z,-5.78
2022-12-15T01:03:54.208Z,-5.84
2022-12-15T01:06:39.560Z,-5.87
2022-12-15T01:09:27.060Z,-5.93
2022-12-15T01:12:12.610Z,-5.95
2022-12-15T01:14:58.071Z,-5.78
2022-12-15T01:17:43.308Z,-5.85
2022-12-15T01:20:14.453Z,-5.93
2022-12-15T01:22:41.454Z,-5.68
2022-12-15T01:25:08.939Z,-5.83
2022-12-15T01:27:35.464Z,-5.83
2022-12-15T01:30:02.549Z,-5.86
2022-12-15T01:32:28.926Z,-5.86
2022-12-15T01:34:55.299Z,-5.95
2022-12-15T01:37:21.736Z,-6.00
2022-12-15T01:40:06.422Z,-6.02
2022-12-15T01:42:32.936Z,-6.10
2022-12-15T01:45:21.058Z,-6.16
2022-12-15T01:47:47.424Z,-6.07
2022-12-15T01:50:14.574Z,-6.06
2022-12-15T01:52:45.714Z,-6.10
2022-12-15T01:55:17.586Z,-5.91
2022-12-15T01:57:44.038Z,-5.70
2022-12-15T02:00:11.134Z,-5.67
2022-12-15T02:02:40.360Z,-5.62
2022-12-15T02:05:07.849Z,-5.67
2022-12-15T02:07:34.200Z,-5.79
2022-12-15T02:10:01.947Z,-5.74
2022-12-15T02:12:50.291Z,-5.71
2022-12-15T02:15:41.684Z,-5.73
2022-12-15T02:18:26.509Z,-5.61
2022-12-15T02:21:07.898Z,-5.64
2022-12-15T02:24:03.736Z,-5.52
2022-12-15T02:26:58.099Z,-5.53
2022-12-15T02:29:44.096Z,-5.47
2022-12-15T02:32:15.316Z,-5.37
2022-12-15T02:35:05.974Z,-5.33
2022-12-15T02:37:34.504Z,-5.25
2022-12-15T02:40:01.175Z,-5.28
2022-12-15T02:42:29.120Z,-5.21
2022-12-15T02:44:58.643Z,-5.24
2022-12-15T02:47:49.096Z,-5.21
2022-12-15T02:50:29.262Z,-5.33
2022-12-15T02:52:58.374Z,-5.22
2022-12-15T02:56:07.909Z,-5.18
2022-12-15T02:59:11.059Z,-5.21
2022-12-15T03:01:44.476Z,-5.28
2022-12-15T03:04:12.007Z,-5.28
2022-12-15T03:06:38.870Z,-5.23
2022-12-15T03:09:05.291Z,-5.17
2022-12-15T03:11:31.854Z,-5.25
2022-12-15T03:13:58.205Z,-5.22
2022-12-15T03:16:24.651Z,-5.19
2022-12-15T03:18:52.272Z,-5.24
2022-12-15T03:21:18.656Z,-5.15
2022-12-15T03:23:45.199Z,-5.15
2022-12-15T03:26:11.781Z,-5.32
2022-12-15T03:28:38.168Z,-5.45
2022-12-15T03:31:04.570Z,-5.32
2022-12-15T03:33:33.805Z,-5.32
2022-12-15T03:36:00.610Z,-5.27
2022-12-15T03:38:26.994Z,-5.37
2022-12-15T03:40:53.350Z,-5.32
2022-12-15T03:43:19.712Z,-5.35
2022-12-15T03:45:46.186Z,-5.38
2022-12-15T03:48:12.819Z,-5.30
2022-12-15T03:50:39.166Z,-5.36
2022-12-15T03:53:05.631Z,-5.35
2022-12-15T03:55:32.416Z,-5.31
2022-12-15T03:57:59.183Z,-5.40
2022-12-15T04:00:25.768Z,-5.47
2022-12-15T04:02:52.939Z,-5.41
2022-12-15T04:05:22.078Z,-5.41
2022-12-15T04:07:48.454Z,-5.38
2022-12-15T04:10:15.844Z,-5.34
2022-12-15T04:12:42.252Z,-5.28
2022-12-15T04:15:10.197Z,-5.41
2022-12-15T04:17:37.186Z,-5.29
2022-12-15T04:20:11.699Z,-5.21
2022-12-15T04:22:43.163Z,-5.30
2022-12-15T04:25:34.266Z,-5.38
2022-12-15T04:28:19.478Z,-5.27
2022-12-15T04:31:08.165Z,-5.23
2022-12-15T04:33:54.175Z,-5.18
2022-12-15T04:36:39.117Z,-5.27
2022-12-15T04:39:24.500Z,-5.46
2022-12-15T04:42:10.382Z,-5.58
2022-12-15T04:44:55.519Z,-5.69
2022-12-15T04:47:40.398Z,-5.73
2022-12-15T04:50:25.891Z,-5.83
2022-12-15T04:53:10.580Z,-5.83
2022-12-15T04:55:55.743Z,-5.83
2022-12-15T04:58:40.667Z,-5.72
2022-12-15T05:01:25.947Z,-5.55
2022-12-15T05:04:11.229Z,-5.66
2022-12-15T05:06:55.810Z,-5.79
2022-12-15T05:09:40.938Z,-5.78
2022-12-15T05:12:25.749Z,-5.61
2022-12-15T05:15:10.443Z,-5.57
2022-12-15T05:17:55.273Z,-5.53
2022-12-15T05:20:40.327Z,-5.54
2022-12-15T05:23:25.130Z,-5.68
2022-12-15T05:26:10.066Z,-5.66
2022-12-15T05:28:55.031Z,-5.68
2022-12-15T05:31:39.943Z,-5.71
2022-12-15T05:34:06.915Z,-5.81
2022-12-15T05:36:33.431Z,-5.79
2022-12-15T05:38:59.799Z,-5.78
2022-12-15T05:41:26.195Z,-5.87
2022-12-15T05:43:52.549Z,-5.97
2022-12-15T05:46:19.639Z,-6.06
2022-12-15T05:48:46.296Z,-6.04
2022-12-15T05:51:13.500Z,-6.05
2022-12-15T05:53:40.869Z,-5.98
2022-12-15T05:56:09.911Z,-6.01
2022-12-15T05:58:41.530Z,-5.92
2022-12-15T06:01:16.900Z,-5.66
2022-12-15T06:03:43.599Z,-5.57
2022-12-15T06:06:11.320Z,-5.59
2022-12-15T06:08:39.302Z,-5.63
2022-12-15T06:11:05.800Z,-5.56
2022-12-15T06:13:34.544Z,-5.57
2022-12-15T06:16:05.013Z,-5.54
2022-12-15T06:18:37.475Z,-5.55
2022-12-15T06:21:06.970Z,-5.53
2022-12-15T06:23:34.485Z,-5.58
2022-12-15T06:26:15.850Z,-5.57
2022-12-15T06:28:42.286Z,-5.65
2022-12-15T06:31:10.479Z,-5.63
2022-12-15T06:33:37.332Z,-5.85
2022-12-15T06:36:05.598Z,-5.67
2022-12-15T06:38:32.519Z,-5.52
2022-12-15T06:41:00.086Z,-5.53
2022-12-15T06:43:27.604Z,-5.57
2022-12-15T06:45:54.501Z,-5.50
2022-12-15T06:48:23.660Z,-5.58
2022-12-15T06:50:50.633Z,-5.72
2022-12-15T06:53:18.557Z,-5.85
2022-12-15T06:55:45.650Z,-5.97
2022-12-15T06:58:12.979Z,-6.23
2022-12-15T07:00:40.909Z,-6.33
2022-12-15T07:03:10.421Z,-6.43
2022-12-15T07:05:36.936Z,-6.32
2022-12-15T07:08:03.323Z,-6.19
2022-12-15T07:10:29.771Z,-6.17
2022-12-15T07:12:57.579Z,-6.20
2022-12-15T07:15:24.450Z,-6.06
2022-12-15T07:17:51.271Z,-5.99
2022-12-15T07:20:17.697Z,-5.86
2022-12-15T07:22:44.078Z,-5.90
2022-12-15T07:25:10.523Z,-6.02
2022-12-15T07:27:36.897Z,-6.26
2022-12-15T07:30:03.398Z,-6.24
2022-12-15T07:32:30.623Z,-6.16
2022-12-15T07:34:57.074Z,-6.17
2022-12-15T07:37:23.449Z,-6.16
2022-12-15T07:39:49.809Z,-6.03
2022-12-15T07:42:16.201Z,-5.92
2022-12-15T07:44:42.671Z,-5.81
2022-12-15T07:47:09.084Z,-5.78
2022-12-15T07:49:35.464Z,-5.71
2022-12-15T07:52:01.837Z,-5.74
2022-12-15T07:54:29.124Z,-5.69
2022-12-15T07:56:55.632Z,-5.66
2022-12-15T07:59:22.015Z,-5.67
2022-12-15T08:01:49.462Z,-5.58
2022-12-15T08:04:16.196Z,-5.66
2022-12-15T08:06:42.787Z,-5.78
2022-12-15T08:09:09.811Z,-5.74
2022-12-15T08:11:36.719Z,-5.76
2022-12-15T08:14:04.950Z,-5.75
2022-12-15T08:16:34.192Z,-5.68
2022-12-15T08:19:00.704Z,-5.63
2022-12-15T08:21:27.192Z,-5.85
2022-12-15T08:23:53.830Z,-5.62
2022-12-15T08:26:23.791Z,-5.64
2022-12-15T08:28:51.512Z,-5.44
2022-12-15T08:31:23.314Z,-5.42
2022-12-15T08:33:50.656Z,-5.44
2022-12-15T08:36:18.283Z,-5.28
2022-12-15T08:38:45.795Z,-5.29
2022-12-15T08:41:17.479Z,-5.25
2022-12-15T08:43:48.473Z,-4.97
2022-12-15T08:46:16.994Z,-5.00
2022-12-15T08:48:43.736Z,-5.12
2022-12-15T08:51:10.544Z,-5.14
2022-12-15T08:53:37.034Z,-4.99
2022-12-15T08:56:08.305Z,-4.96
2022-12-15T08:58:34.738Z,-4.96
2022-12-15T09:01:06.041Z,-4.94
2022-12-15T09:03:33.903Z,-4.99
2022-12-15T09:06:10.189Z,-4.88
2022-12-15T09:08:36.540Z,-4.86
2022-12-15T09:11:05.523Z,-4.90
2022-12-15T09:13:32.467Z,-4.87
2022-12-15T09:16:09.365Z,-4.84
2022-12-15T09:18:36.132Z,-4.71
2022-12-15T09:21:06.546Z,-4.59
2022-12-15T09:23:34.078Z,-4.47
2022-12-15T09:26:08.663Z,-4.47
2022-12-15T09:28:35.435Z,-4.49
2022-12-15T09:31:09.379Z,-4.36
2022-12-15T09:33:36.524Z,-4.22
2022-12-15T09:36:03.872Z,-4.06
2022-12-15T09:38:31.089Z,-3.90
2022-12-15T09:40:57.546Z,-3.76
2022-12-15T09:43:34.790Z,-3.67
2022-12-15T09:46:21.041Z,-3.59
2022-12-15T09:48:48.101Z,-3.47
2022-12-15T09:51:17.190Z,-3.25
2022-12-15T09:53:59.560Z,-3.35
2022-12-15T09:56:33.174Z,-3.20
2022-12-15T09:59:16.354Z,-2.92
2022-12-15T10:02:10.792Z,-2.91
2022-12-15T10:04:45.990Z,-2.73
2022-12-15T10:07:31.230Z,-2.62
2022-12-15T10:09:57.886Z,-2.49
2022-12-15T10:12:31.330Z,-2.38
2022-12-15T10:15:04.872Z,-2.20
2022-12-15T10:18:00.254Z,-1.81
2022-12-15T10:20:28.968Z,-1.72
2022-12-15T10:22:57.907Z,-1.46
2022-12-15T10:25:30.493Z,-1.29
2022-12-15T10:28:06.361Z,-1.27
2022-12-15T10:30:33.732Z,-1.41
2022-12-15T10:33:15.297Z,-1.39
2022-12-15T10:35:43.893Z,-1.49
2022-12-15T10:38:24.450Z,-1.66
2022-12-15T10:40:54.716Z,-1.67
2022-12-15T10:43:28.044Z,-1.66
2022-12-15T10:46:14.015Z,-1.67
2022-12-15T10:48:41.957Z,-1.68
2022-12-15T10:51:08.220Z,-1.60
2022-12-15T10:53:40.458Z,-1.55
2022-12-15T10:56:08.219Z,-1.57
2022-12-15T10:58:50.824Z,-1.52
2022-12-15T11:01:24.795Z,-1.52
2022-12-15T11:03:52.688Z,-1.47
2022-12-15T11:06:28.097Z,-1.41
2022-12-15T11:08:57.367Z,-1.39
2022-12-15T11:11:45.196Z,-1.30
2022-12-15T11:14:43.120Z,-1.20
2022-12-15T11:17:09.643Z,-1.16
2022-12-15T11:19:40.766Z,-1.18
2022-12-15T11:22:18.101Z,-1.11
2022-12-15T11:24:48.790Z,-1.04
2022-12-15T11:27:38.903Z,-0.99
2022-12-15T11:30:14.345Z,-0.93
2022-12-15T11:32:44.459Z,-1.34
2022-12-15T11:35:22.152Z,-1.03
2022-12-15T11:37:57.711Z,-0.91
2022-12-15T11:40:30.746Z,-0.91
2022-12-15T11:43:35.279Z,-0.96
2022-12-15T11:46:25.733Z,-0.84
2022-12-15T11:49:01.999Z,-0.75
2022-12-15T11:51:42.420Z,-0.78
2022-12-15T11:54:33.855Z,-0.65
2022-12-15T11:57:13.340Z,-0.56
2022-12-15T11:59:45.844Z,-0.50
2022-12-15T12:02:22.744Z,-0.42
2022-12-15T12:05:07.151Z,-0.46
2022-12-15T12:08:02.727Z,-0.49
2022-12-15T12:10:28.987Z,-0.58
2022-12-15T12:13:16.738Z,-0.93
2022-12-15T12:15:57.610Z,-0.53
2022-12-15T12:18:38.085Z,-0.49
2022-12-15T12:21:17.180Z,-0.66
2022-12-15T12:24:04.580Z,-0.90
2022-12-15T12:26:50.183Z,-0.67
2022-12-15T12:29:33.298Z,-0.40
2022-12-15T12:32:09.001Z,-0.52
2022-12-15T12:35:30.654Z,-0.71
2022-12-15T12:40:59.641Z,-0.44
2022-12-15T12:43:50.408Z,-0.08
2022-12-15T12:46:22.792Z,0.12
2022-12-15T12:48:55.957Z,0.13
2022-12-15T12:51:24.486Z,0.17
2022-12-15T12:53:51.527Z,0.16
2022-12-15T12:56:40.672Z,0.22
2022-12-15T12:59:30.408Z,-0.15
2022-12-15T13:01:58.937Z,0.07
2022-12-15T13:04:28.305Z,-0.12
2022-12-15T13:06:54.600Z,0.17
2022-12-15T13:09:24.031Z,0.27
2022-12-15T13:11:53.336Z,0.34
2022-12-15T13:14:26.496Z,0.33
2022-12-15T13:17:27.815Z,0.52
2022-12-15T13:20:00.706Z,0.47
2022-12-15T13:22:40.260Z,0.57
2022-12-15T13:25:42.963Z,0.50
2022-12-15T13:28:27.192Z,0.58
2022-12-15T13:31:16.480Z,0.35
2022-12-15T13:33:55.750Z,0.62
2022-12-15T13:36:37.664Z,0.62
2022-12-15T13:39:30.108Z,0.58
2022-12-15T13:44:51.750Z,0.65
2022-12-15T13:47:29.657Z,0.57
2022-12-15T13:50:18.197Z,0.21
2022-12-15T13:55:52.931Z,0.45
2022-12-15T13:58:20.692Z,0.49
2022-12-15T14:00:58.200Z,0.38
2022-12-15T14:03:26.103Z,0.00
2022-12-15T14:05:57.410Z,-0.05
2022-12-15T14:08:27.197Z,0.04
2022-12-15T14:10:56.275Z,0.01
2022-12-15T14:13:31.396Z,-0.10
2022-12-15T14:16:04.408Z,-0.08
2022-12-15T14:18:33.867Z,-0.30
2022-12-15T14:21:01.724Z,-0.40
2022-12-15T14:23:31.565Z,-0.53
2022-12-15T14:26:07.071Z,-0.53
2022-12-15T14:28:36.290Z,-0.49
2022-12-15T14:31:06.108Z,-0.57
2022-12-15T14:33:36.521Z,-0.63
2022-12-15T14:36:06.436Z,-0.66
2022-12-15T14:38:54.538Z,-0.68
2022-12-15T14:41:25.352Z,-0.74
2022-12-15T14:44:37.337Z,-0.70
2022-12-15T14:46:38.875Z,-0.71
2022-12-15T14:49:07.495Z,-0.80
2022-12-15T14:51:43.137Z,-1.00
2022-12-15T14:54:32.099Z,-0.75
2022-12-15T14:57:28.151Z,-0.85
2022-12-15T14:59:54.841Z,-1.05
2022-12-15T15:02:28.271Z,-1.11
2022-12-15T15:03:05.024Z,-0.37
2022-12-15T15:03:10.627Z,0.61
2022-12-15T15:04:56.268Z,-0.95
2022-12-15T15:07:23.719Z,-0.97
2022-12-15T15:09:50.309Z,-1.15
2022-12-15T15:12:21.847Z,-1.31
2022-12-15T15:14:51.842Z,-1.47
2022-12-15T15:17:47.616Z,-1.79
2022-12-15T15:20:31.565Z,-1.73
2022-12-15T15:23:06.967Z,-1.58
2022-12-15T15:25:39.389Z,-1.49
2022-12-15T15:28:18.657Z,-1.47
2022-12-15T15:31:06.699Z,-1.47
2022-12-15T15:33:33.264Z,-1.55
2022-12-15T15:36:01.644Z,-1.69
2022-12-15T15:38:36.544Z,-1.81
2022-12-15T15:41:15.163Z,-2.12
2022-12-15T15:43:41.669Z,-2.30
2022-12-15T15:46:13.181Z,-2.45
2022-12-15T15:48:46.540Z,-2.63
2022-12-15T15:51:13.006Z,-2.65
2022-12-15T15:53:39.431Z,-2.65
2022-12-15T15:56:07.138Z,-2.70
2022-12-15T15:58:34.846Z,-2.56
2022-12-15T16:01:02.010Z,-2.53
2022-12-15T16:03:29.220Z,-2.61
2022-12-15T16:05:56.312Z,-2.80
2022-12-15T16:08:27.708Z,-2.85
2022-12-15T16:10:54.407Z,-2.76
2022-12-15T16:13:26.025Z,-2.81
2022-12-15T16:15:53.044Z,-2.79
2022-12-15T16:18:19.902Z,-2.75
2022-12-15T16:20:48.851Z,-2.61
2022-12-15T16:23:21.246Z,-2.77
2022-12-15T16:25:53.235Z,-2.92
2022-12-15T16:28:21.401Z,-2.98
2022-12-15T16:30:48.120Z,-3.03
2022-12-15T16:33:14.807Z,-3.07
2022-12-15T16:35:42.055Z,-2.86
2022-12-15T16:38:16.117Z,-2.88
2022-12-15T16:40:42.495Z,-2.98
2022-12-15T16:43:14.727Z,-3.03
2022-12-15T16:45:42.331Z,-3.11
2022-12-15T16:48:08.884Z,-3.18
2022-12-15T16:50:37.597Z,-3.24
2022-12-15T16:53:04.608Z,-3.31
2022-12-15T16:55:36.625Z,-3.47
2022-12-15T16:58:06.549Z,-3.46
2022-12-15T17:00:35.134Z,-3.49
2022-12-15T17:03:02.625Z,-3.49
2022-12-15T17:05:33.982Z,-3.45
2022-12-15T17:08:04.300Z,-3.44
2022-12-15T17:10:31.324Z,-3.53
2022-12-15T17:13:06.625Z,-3.64
2022-12-15T17:15:33.042Z,-3.44
2022-12-15T17:17:59.438Z,-3.37
2022-12-15T17:20:29.497Z,-3.49
2022-12-15T17:23:00.834Z,-3.49
2022-12-15T17:26:01.627Z,-3.42
2022-12-15T17:28:23.537Z,-3.37
2022-12-15T17:30:51.403Z,-3.44
2022-12-15T17:33:20.436Z,-3.62
2022-12-15T17:35:48.681Z,-3.63
2022-12-15T17:38:17.001Z,-3.67
2022-12-15T17:40:43.379Z,-3.69
2022-12-15T17:43:14.523Z,-3.67
2022-12-15T17:45:41.525Z,-3.66
2022-12-15T17:48:08.241Z,-3.77
2022-12-15T17:50:35.214Z,-3.75
2022-12-15T17:53:03.434Z,-3.76
2022-12-15T17:55:34.774Z,-3.79
2022-12-15T17:58:02.691Z,-3.82
2022-12-15T18:00:31.136Z,-3.80
2022-12-15T18:02:59.375Z,-3.80
2022-12-15T18:05:28.911Z,-3.79
2022-12-15T18:07:57.363Z,-3.83
2022-12-15T18:10:30.947Z,-3.80
2022-12-15T18:12:57.488Z,-3.77
2022-12-15T18:15:26.940Z,-3.71
2022-12-15T18:17:54.008Z,-3.79
2022-12-15T18:20:20.757Z,-3.80
2022-12-15T18:22:48.727Z,-3.74
2022-12-15T18:25:41.556Z,-3.69
2022-12-15T18:28:15.410Z,-3.80
2022-12-15T18:30:41.795Z,-4.08
2022-12-15T18:33:08.417Z,-3.94
2022-12-15T18:35:37.215Z,-3.97
2022-12-15T18:38:13.103Z,-4.05
2022-12-15T18:40:39.510Z,-3.98
2022-12-15T18:43:12.055Z,-4.03
2022-12-15T18:45:38.464Z,-4.05
2022-12-15T18:48:14.618Z,-4.18
2022-12-15T18:50:41.054Z,-4.18
2022-12-15T18:53:14.930Z,-4.30
2022-12-15T18:55:41.344Z,-4.40
2022-12-15T18:58:19.433Z,-4.54
2022-12-15T19:00:45.869Z,-4.70
2022-12-15T19:03:12.343Z,-4.64
2022-12-15T19:05:39.809Z,-4.69
2022-12-15T19:08:11.771Z,-4.90
2022-12-15T19:10:42.761Z,-5.15
2022-12-15T19:13:16.914Z,-5.30
2022-12-15T19:15:43.766Z,-5.22
2022-12-15T19:18:36.518Z,-5.29
2022-12-15T19:21:41.656Z,-5.28
2022-12-15T19:24:11.440Z,-5.23
2022-12-15T19:26:40.135Z,-5.04
2022-12-15T19:29:14.112Z,-4.99
2022-12-15T19:31:40.539Z,-4.93
2022-12-15T19:34:08.047Z,-5.00
2022-12-15T19:36:36.876Z,-5.22
2022-12-15T19:39:04.658Z,-5.24
2022-12-15T19:41:38.051Z,-5.25
2022-12-15T19:44:13.621Z,-5.23
2022-12-15T19:46:41.598Z,-5.22
2022-12-15T19:49:08.104Z,-5.26
2022-12-15T19:51:34.543Z,-5.32
2022-12-15T19:54:01.118Z,-5.58
2022-12-15T19:56:29.050Z,-5.67
2022-12-15T19:58:55.780Z,-5.65
2022-12-15T20:01:22.578Z,-5.68
2022-12-15T20:03:51.146Z,-5.63
2022-12-15T20:06:26.118Z,-5.50
2022-12-15T20:08:55.690Z,-5.45
2022-12-15T20:11:24.725Z,-5.31
2022-12-15T20:13:51.621Z,-5.23
2022-12-15T20:16:19.113Z,-5.49
2022-12-15T20:18:46.796Z,-5.40
2022-12-15T20:21:16.804Z,-5.40
2022-12-15T20:23:51.944Z,-5.36
2022-12-15T20:26:18.865Z,-5.32
2022-12-15T20:28:45.363Z,-5.43
2022-12-15T20:31:16.493Z,-5.45
2022-12-15T20:33:44.157Z,-5.64
2022-12-15T20:36:15.939Z,-5.76
2022-12-15T20:38:42.700Z,-5.64
2022-12-15T20:41:16.217Z,-5.51
2022-12-15T20:43:42.739Z,-5.50
2022-12-15T20:46:15.984Z,-5.56
2022-12-15T20:48:43.035Z,-5.54
2022-12-15T20:51:14.258Z,-5.48
2022-12-15T20:53:40.819Z,-5.56
2022-12-15T20:56:07.979Z,-5.58
2022-12-15T20:58:40.197Z,-5.74
2022-12-15T21:01:31.703Z,-5.95
2022-12-15T21:03:59.802Z,-5.87
2022-12-15T21:06:27.711Z,-5.96
2022-12-15T21:08:54.771Z,-6.13
2022-12-15T21:11:26.155Z,-6.08
2022-12-15T21:13:54.191Z,-5.92
2022-12-15T21:16:26.275Z,-5.84
2022-12-15T21:21:43.295Z,-6.04
2022-12-15T21:24:22.668Z,-6.13
2022-12-15T21:26:49.926Z,-6.22
2022-12-15T21:29:19.289Z,-6.24
2022-12-15T21:31:46.080Z,-6.21
2022-12-15T21:34:12.713Z,-6.23
2022-12-15T21:36:40.389Z,-6.43
2022-12-15T21:39:07.348Z,-6.40
2022-12-15T21:41:34.198Z,-6.35
2022-12-15T21:44:00.639Z,-6.32
2022-12-15T21:46:30.369Z,-6.33
2022-12-15T21:49:17.340Z,-6.18
2022-12-15T21:51:58.856Z,-6.01
2022-12-15T21:54:32.962Z,-5.98
2022-12-15T21:57:00.191Z,-5.91
2022-12-15T21:59:29.344Z,-6.01
2022-12-15T22:01:56.150Z,-6.10
2022-12-15T22:04:32.521Z,-6.14
2022-12-15T22:06:58.933Z,-6.28
2022-12-15T22:09:25.357Z,-6.36
2022-12-15T22:11:56.189Z,-6.38
2022-12-15T22:14:29.486Z,-6.41
2022-12-15T22:16:56.737Z,-6.41
2022-12-15T22:19:23.937Z,-6.37
2022-12-15T22:21:50.661Z,-6.51
2022-12-15T22:24:18.941Z,-6.64
2022-12-15T22:26:45.346Z,-6.83
2022-12-15T22:29:20.685Z,-6.67
2022-12-15T22:31:47.746Z,-6.78
2022-12-15T22:34:19.604Z,-6.91
2022-12-15T22:36:46.105Z,-6.91
2022-12-15T22:39:14.631Z,-6.88
2022-12-15T22:41:43.735Z,-6.96
2022-12-15T22:44:37.119Z,-6.78
2022-12-15T22:47:04.168Z,-6.85
2022-12-15T22:49:34.663Z,-6.71
2022-12-15T22:52:01.066Z,-6.74
2022-12-15T22:54:29.067Z,-6.57
2022-12-15T22:57:04.215Z,-6.68
2022-12-15T22:59:31.803Z,-6.78
2022-12-15T23:01:58.444Z,-6.73
2022-12-15T23:04:25.153Z,-6.78
2022-12-15T23:06:51.768Z,-6.71
2022-12-15T23:09:18.386Z,-6.61
2022-12-15T23:11:44.906Z,-6.85
2022-12-15T23:14:14.151Z,-7.01
2022-12-15T23:16:40.637Z,-7.06
2022-12-15T23:19:08.354Z,-7.06
2022-12-15T23:21:35.327Z,-7.23
2022-12-15T23:24:01.838Z,-7.21
2022-12-15T23:26:28.189Z,-7.01
2022-12-15T23:28:55.246Z,-7.14
2022-12-15T23:31:22.093Z,-7.12
2022-12-15T23:33:48.540Z,-7.14
2022-12-15T23:36:14.906Z,-6.95
2022-12-15T23:38:41.427Z,-6.92
2022-12-15T23:41:07.861Z,-6.73
2022-12-15T23:43:35.291Z,-6.94
2022-12-15T23:46:05.205Z,-6.89
2022-12-15T23:48:34.515Z,-7.03
2022-12-15T23:51:20.284Z,-7.02
2022-12-15T23:53:47.501Z,-6.92
2022-12-15T23:56:18.933Z,-6.92
2022-12-15T23:58:46.647Z,-6.88
